sensor_id;sensor_type;location;lat;lon;timestamp;temperature;humidity
4293;DHT22;2160;51.172;6.808;2024-01-07T05:01:51;5.80;99.90
4293;DHT22;2160;51.172;6.808;2024-01-07T05:04:18;5.80;99.90
4293;DHT22;2160;51.172;6.808;2024-01-07T05:06:45;5.60;99.90
4293;DHT22;2160;51.172;6.808;2024-01-07T05:09:12;5.60;99.90
4293;DHT22;2160;51.172;6.808;2024-01-07T05:11:39;5.50;99.90
4293;DHT22;2160;51.172;6.808;2024-01-07T05:14:06;5.60;99.90
4293;DHT22;2160;51.172;6.808;2024-01-07T05:16:33;5.40;99.90
4293;DHT22;2160;51.172;6.808;2024-01-07T05:19:01;5.50;99.90
4293;DHT22;2160;51.172;6.808;2024-01-07T05:21:29;5.50;99.90
4293;DHT22;2160;51.172;6.808;2024-01-07T05:23:56;5.40;99.90
4293;DHT22;2160;51.172;6.808;2024-01-07T05:26:23;5.20;99.90
4293;DHT22;2160;51.172;6.808;2024-01-07T05:28:50;5.00;99.90
4293;DHT22;2160;51.172;6.808;2024-01-07T05:31:17;5.20;99.90
4293;DHT22;2160;51.172;6.808;2024-01-07T05:33:45;5.10;99.90
4293;DHT22;2160;51.172;6.808;2024-01-07T05:36:13;5.00;99.90
4293;DHT22;2160;51.172;6.808;2024-01-07T05:38:41;5.30;99.90
4293;DHT22;2160;51.172;6.808;2024-01-07T05:41:08;5.40;99.90
4293;DHT22;2160;51.172;6.808;2024-01-07T05:43:36;5.40;99.90
4293;DHT22;2160;51.172;6.808;2024-01-07T05:46:03;5.40;99.90
4293;DHT22;2160;51.172;6.808;2024-01-07T05:48:41;5.30;99.90
4293;DHT22;2160;51.172;6.808;2024-01-07T05:51:09;5.40;99.90
4293;DHT22;2160;51.172;6.808;2024-01-07T05:53:37;5.50;99.90
4293;DHT22;2160;51.172;6.808;2024-01-07T05:56:04;5.60;99.90
4293;DHT22;2160;51.172;6.808;2024-01-07T05:58:31;5.60;99.90
4293;DHT22;2160;51.172;6.808;2024-01-07T06:00:58;5.50;99.90
4293;DHT22;2160;51.172;6.808;2024-01-07T06:03:26;5.40;99.90
4293;DHT22;2160;51.172;6.808;2024-01-07T06:05:53;5.20;99.90
4293;DHT22;2160;51.172;6.808;2024-01-07T06:08:20;5.10;99.90
4293;DHT22;2160;51.172;6.808;2024-01-07T06:10:48;5.20;99.90
4293;DHT22;2160;51.172;6.808;2024-01-07T06:13:15;5.30;99.90
4293;DHT22;2160;51.172;6.808;2024-01-07T06:15:42;5.30;99.90
4293;DHT22;2160;51.172;6.808;2024-01-07T06:18:09;5.40;99.90
4293;DHT22;2160;51.172;6.808;2024-01-07T06:20:36;5.40;99.90
4293;DHT22;2160;51.172;6.808;2024-01-07T06:23:03;5.60;99.90
4293;DHT22;2160;51.172;6.808;2024-01-07T06:25:31;5.50;99.90
4293;DHT22;2160;51.172;6.808;2024-01-07T06:28:00;5.10;99.90
4293;DHT22;2160;51.172;6.808;2024-01-07T06:30:27;5.20;99.90
4293;DHT22;2160;51.172;6.808;2024-01-07T06:32:54;5.00;99.90
4293;DHT22;2160;51.172;6.808;2024-01-07T06:35:21;4.90;99.90
4293;DHT22;2160;51.172;6.808;2024-01-07T06:37:48;5.00;99.90
4293;DHT22;2160;51.172;6.808;2024-01-07T06:40:16;5.00;99.90
4293;DHT22;2160;51.172;6.808;2024-01-07T06:42:43;4.80;99.90
4293;DHT22;2160;51.172;6.808;2024-01-07T06:45:11;5.00;99.90
4293;DHT22;2160;51.172;6.808;2024-01-07T06:47:38;5.30;99.90
4293;DHT22;2160;51.172;6.808;2024-01-07T06:50:06;5.20;99.90
4293;DHT22;2160;51.172;6.808;2024-01-07T06:52:33;5.40;99.90
4293;DHT22;2160;51.172;6.808;2024-01-07T06:55:00;5.40;99.90
4293;DHT22;2160;51.172;6.808;2024-01-07T06:57:27;5.60;99.90
4293;DHT22;2160;51.172;6.808;2024-01-07T06:59:54;5.30;99.90
4293;DHT22;2160;51.172;6.808;2024-01-07T07:02:22;5.10;99.90
4293;DHT22;2160;51.172;6.808;2024-01-07T07:04:49;5.10;99.90
4293;DHT22;2160;51.172;6.808;2024-01-07T07:07:17;5.10;99.90
4293;DHT22;2160;51.172;6.808;2024-01-07T07:09:44;5.20;99.90
4293;DHT22;2160;51.172;6.808;2024-01-07T07:12:12;4.90;99.90
4293;DHT22;2160;51.172;6.808;2024-01-07T07:14:39;4.80;99.90
4293;DHT22;2160;51.172;6.808;2024-01-07T07:17:06;4.70;99.90
4293;DHT22;2160;51.172;6.808;2024-01-07T07:19:34;4.80;99.90
4293;DHT22;2160;51.172;6.808;2024-01-07T07:22:03;4.90;99.90
4293;DHT22;2160;51.172;6.808;2024-01-07T07:24:30;4.80;99.90
4293;DHT22;2160;51.172;6.808;2024-01-07T07:26:57;4.80;99.90
4293;DHT22;2160;51.172;6.808;2024-01-07T07:29:24;4.90;99.90
4293;DHT22;2160;51.172;6.808;2024-01-07T07:31:51;4.90;99.90
4293;DHT22;2160;51.172;6.808;2024-01-07T07:34:18;4.80;99.90
4293;DHT22;2160;51.172;6.808;2024-01-07T07:36:46;4.70;99.90
4293;DHT22;2160;51.172;6.808;2024-01-07T07:39:13;4.60;99.90
4293;DHT22;2160;51.172;6.808;2024-01-07T07:41:40;4.40;99.90
4293;DHT22;2160;51.172;6.808;2024-01-07T07:44:08;4.40;99.90
4293;DHT22;2160;51.172;6.808;2024-01-07T07:46:35;4.50;99.90
4293;DHT22;2160;51.172;6.808;2024-01-07T07:49:02;4.40;99.90
4293;DHT22;2160;51.172;6.808;2024-01-07T07:51:29;4.50;99.90
4293;DHT22;2160;51.172;6.808;2024-01-07T07:53:57;4.60;99.90
4293;DHT22;2160;51.172;6.808;2024-01-07T07:56:24;4.40;99.90
4293;DHT22;2160;51.172;6.808;2024-01-07T07:58:51;4.60;99.90
4293;DHT22;2160;51.172;6.808;2024-01-07T08:01:18;4.40;99.90
4293;DHT22;2160;51.172;6.808;2024-01-07T08:03:44;4.60;99.90
4293;DHT22;2160;51.172;6.808;2024-01-07T08:06:11;4.60;99.90
4293;DHT22;2160;51.172;6.808;2024-01-07T08:08:38;4.50;99.90
4293;DHT22;2160;51.172;6.808;2024-01-07T08:11:06;4.40;99.90
4293;DHT22;2160;51.172;6.808;2024-01-07T08:13:35;4.80;99.90
4293;DHT22;2160;51.172;6.808;2024-01-07T08:16:04;5.00;99.90
4293;DHT22;2160;51.172;6.808;2024-01-07T08:18:31;5.10;99.90
4293;DHT22;2160;51.172;6.808;2024-01-07T08:20:58;5.10;99.90
4293;DHT22;2160;51.172;6.808;2024-01-07T08:23:26;4.80;99.90
4293;DHT22;2160;51.172;6.808;2024-01-07T08:25:53;4.80;99.90
4293;DHT22;2160;51.172;6.808;2024-01-07T08:28:21;4.80;99.90
4293;DHT22;2160;51.172;6.808;2024-01-07T08:30:48;4.70;99.90
4293;DHT22;2160;51.172;6.808;2024-01-07T08:33:17;4.60;99.90
4293;DHT22;2160;51.172;6.808;2024-01-07T08:35:44;4.80;99.90
4293;DHT22;2160;51.172;6.808;2024-01-07T08:38:11;4.90;99.90
4293;DHT22;2160;51.172;6.808;2024-01-07T08:40:39;5.00;99.90
4293;DHT22;2160;51.172;6.808;2024-01-07T08:43:06;5.00;99.90
4293;DHT22;2160;51.172;6.808;2024-01-07T08:45:34;5.20;99.90
4293;DHT22;2160;51.172;6.808;2024-01-07T08:48:01;5.00;99.90
4293;DHT22;2160;51.172;6.808;2024-01-07T08:50:28;5.00;99.90
4293;DHT22;2160;51.172;6.808;2024-01-07T08:52:56;5.20;99.90
4293;DHT22;2160;51.172;6.808;2024-01-07T08:55:23;5.10;99.90
4293;DHT22;2160;51.172;6.808;2024-01-07T08:57:50;4.90;99.90
4293;DHT22;2160;51.172;6.808;2024-01-07T09:00:18;4.80;99.90
4293;DHT22;2160;51.172;6.808;2024-01-07T09:02:46;5.00;99.90
4293;DHT22;2160;51.172;6.808;2024-01-07T09:05:14;5.30;99.90
4293;DHT22;2160;51.172;6.808;2024-01-07T09:07:41;5.10;99.90
4293;DHT22;2160;51.172;6.808;2024-01-07T09:10:09;5.00;99.90
4293;DHT22;2160;51.172;6.808;2024-01-07T09:12:37;5.10;99.90
4293;DHT22;2160;51.172;6.808;2024-01-07T09:15:05;4.90;99.90
4293;DHT22;2160;51.172;6.808;2024-01-07T09:17:34;4.60;99.90
4293;DHT22;2160;51.172;6.808;2024-01-07T09:20:03;4.60;99.90
4293;DHT22;2160;51.172;6.808;2024-01-07T09:22:33;4.30;99.90
4293;DHT22;2160;51.172;6.808;2024-01-07T09:25:00;4.40;99.90
4293;DHT22;2160;51.172;6.808;2024-01-07T09:27:28;4.40;99.90
4293;DHT22;2160;51.172;6.808;2024-01-07T09:29:55;4.50;99.90
4293;DHT22;2160;51.172;6.808;2024-01-07T09:32:22;4.40;99.90
4293;DHT22;2160;51.172;6.808;2024-01-07T09:34:49;4.30;99.90
4293;DHT22;2160;51.172;6.808;2024-01-07T09:37:18;4.20;99.90
4293;DHT22;2160;51.172;6.808;2024-01-07T09:39:45;4.30;99.90
4293;DHT22;2160;51.172;6.808;2024-01-07T09:42:13;4.50;99.90
4293;DHT22;2160;51.172;6.808;2024-01-07T09:44:40;4.30;99.90
4293;DHT22;2160;51.172;6.808;2024-01-07T09:47:11;4.40;99.90
4293;DHT22;2160;51.172;6.808;2024-01-07T09:49:38;4.10;99.90
4293;DHT22;2160;51.172;6.808;2024-01-07T09:52:06;4.10;99.90
4293;DHT22;2160;51.172;6.808;2024-01-07T09:54:36;4.20;99.90
4293;DHT22;2160;51.172;6.808;2024-01-07T09:57:05;4.20;99.90
4293;DHT22;2160;51.172;6.808;2024-01-07T09:59:33;4.30;99.90
4293;DHT22;2160;51.172;6.808;2024-01-07T10:02:01;4.10;99.90
4293;DHT22;2160;51.172;6.808;2024-01-07T10:04:28;4.10;99.90
4293;DHT22;2160;51.172;6.808;2024-01-07T10:06:55;4.20;99.90
4293;DHT22;2160;51.172;6.808;2024-01-07T10:09:22;4.20;99.90
4293;DHT22;2160;51.172;6.808;2024-01-07T10:11:52;4.10;99.90
4293;DHT22;2160;51.172;6.808;2024-01-07T10:14:19;4.10;99.90
4293;DHT22;2160;51.172;6.808;2024-01-07T10:16:48;4.20;99.90
4293;DHT22;2160;51.172;6.808;2024-01-07T10:19:20;4.00;99.90
4293;DHT22;2160;51.172;6.808;2024-01-07T10:21:58;3.70;99.90
4293;DHT22;2160;51.172;6.808;2024-01-07T10:24:26;3.80;99.90
4293;DHT22;2160;51.172;6.808;2024-01-07T10:26:55;4.30;99.90
4293;DHT22;2160;51.172;6.808;2024-01-07T10:29:22;4.30;99.90
4293;DHT22;2160;51.172;6.808;2024-01-07T10:31:49;4.20;99.90
4293;DHT22;2160;51.172;6.808;2024-01-07T10:34:16;4.00;99.90
4293;DHT22;2160;51.172;6.808;2024-01-07T10:36:45;4.00;99.90
4293;DHT22;2160;51.172;6.808;2024-01-07T10:39:12;3.80;99.90
4293;DHT22;2160;51.172;6.808;2024-01-07T10:41:42;3.80;99.90
4293;DHT22;2160;51.172;6.808;2024-01-07T10:44:12;3.70;99.90
4293;DHT22;2160;51.172;6.808;2024-01-07T10:46:40;3.60;99.90
4293;DHT22;2160;51.172;6.808;2024-01-07T10:49:13;3.90;99.90
4293;DHT22;2160;51.172;6.808;2024-01-07T10:51:44;4.20;99.90
4293;DHT22;2160;51.172;6.808;2024-01-07T10:54:13;4.20;99.90
4293;DHT22;2160;51.172;6.808;2024-01-07T10:56:45;4.10;99.90
4293;DHT22;2160;51.172;6.808;2024-01-07T10:59:17;4.10;99.90
4293;DHT22;2160;51.172;6.808;2024-01-07T11:01:45;4.20;99.90
4293;DHT22;2160;51.172;6.808;2024-01-07T11:04:17;4.20;99.90
4293;DHT22;2160;51.172;6.808;2024-01-07T11:06:52;4.30;99.90
4293;DHT22;2160;51.172;6.808;2024-01-07T11:09:29;4.50;99.90
4293;DHT22;2160;51.172;6.808;2024-01-07T11:11:59;4.40;99.90
4293;DHT22;2160;51.172;6.808;2024-01-07T11:14:38;4.30;99.90
4293;DHT22;2160;51.172;6.808;2024-01-07T11:17:05;4.00;99.90
4293;DHT22;2160;51.172;6.808;2024-01-07T11:19:33;4.30;99.90
4293;DHT22;2160;51.172;6.808;2024-01-07T11:22:23;4.30;99.90
4293;DHT22;2160;51.172;6.808;2024-01-07T11:24:51;4.00;99.90
4293;DHT22;2160;51.172;6.808;2024-01-07T11:27:18;4.20;99.90
4293;DHT22;2160;51.172;6.808;2024-01-07T11:29:54;4.20;99.90
4293;DHT22;2160;51.172;6.808;2024-01-07T11:32:22;4.40;99.90
4293;DHT22;2160;51.172;6.808;2024-01-07T11:34:51;4.30;99.90
4293;DHT22;2160;51.172;6.808;2024-01-07T11:37:19;4.00;99.90
4293;DHT22;2160;51.172;6.808;2024-01-07T11:39:48;4.00;99.90
4293;DHT22;2160;51.172;6.808;2024-01-07T11:42:16;4.10;99.90
4293;DHT22;2160;51.172;6.808;2024-01-07T11:44:46;4.10;99.90
4293;DHT22;2160;51.172;6.808;2024-01-07T11:47:15;4.00;99.90
4293;DHT22;2160;51.172;6.808;2024-01-07T11:49:43;3.90;99.90
4293;DHT22;2160;51.172;6.808;2024-01-07T11:52:10;3.60;99.90
4293;DHT22;2160;51.172;6.808;2024-01-07T11:54:37;3.60;99.90
4293;DHT22;2160;51.172;6.808;2024-01-07T11:57:05;3.50;99.90
4293;DHT22;2160;51.172;6.808;2024-01-07T11:59:32;3.50;99.90
4293;DHT22;2160;51.172;6.808;2024-01-07T12:02:00;3.60;99.90
4293;DHT22;2160;51.172;6.808;2024-01-07T12:04:28;3.60;99.90
4293;DHT22;2160;51.172;6.808;2024-01-07T12:06:55;3.60;99.90
4293;DHT22;2160;51.172;6.808;2024-01-07T12:09:22;3.60;99.90
4293;DHT22;2160;51.172;6.808;2024-01-07T12:11:49;3.70;99.90
4293;DHT22;2160;51.172;6.808;2024-01-07T12:14:17;3.90;99.90
4293;DHT22;2160;51.172;6.808;2024-01-07T12:16:45;4.00;99.90
4293;DHT22;2160;51.172;6.808;2024-01-07T12:19:12;4.10;99.90
4293;DHT22;2160;51.172;6.808;2024-01-07T12:21:40;4.00;99.90
4293;DHT22;2160;51.172;6.808;2024-01-07T12:24:07;4.20;99.90
4293;DHT22;2160;51.172;6.808;2024-01-07T12:26:34;4.20;99.90
4293;DHT22;2160;51.172;6.808;2024-01-07T12:29:03;4.20;99.90
4293;DHT22;2160;51.172;6.808;2024-01-07T12:31:32;4.00;99.90
4293;DHT22;2160;51.172;6.808;2024-01-07T12:34:00;3.90;99.90
4293;DHT22;2160;51.172;6.808;2024-01-07T12:36:29;4.20;99.90
4293;DHT22;2160;51.172;6.808;2024-01-07T12:38:59;4.10;99.90
4293;DHT22;2160;51.172;6.808;2024-01-07T12:41:26;4.00;99.90
4293;DHT22;2160;51.172;6.808;2024-01-07T12:43:53;4.10;99.90
4293;DHT22;2160;51.172;6.808;2024-01-07T12:46:21;4.30;99.90
4293;DHT22;2160;51.172;6.808;2024-01-07T12:48:48;4.20;99.90
4293;DHT22;2160;51.172;6.808;2024-01-07T12:51:15;4.00;99.90
4293;DHT22;2160;51.172;6.808;2024-01-07T12:53:43;3.90;99.90
4293;DHT22;2160;51.172;6.808;2024-01-07T12:56:12;3.80;99.90
4293;DHT22;2160;51.172;6.808;2024-01-07T12:58:40;3.70;99.90
4293;DHT22;2160;51.172;6.808;2024-01-07T13:01:11;3.70;99.90
4293;DHT22;2160;51.172;6.808;2024-01-07T13:03:41;3.70;99.90
4293;DHT22;2160;51.172;6.808;2024-01-07T13:06:08;3.70;99.90
4293;DHT22;2160;51.172;6.808;2024-01-07T13:08:35;3.70;99.90
4293;DHT22;2160;51.172;6.808;2024-01-07T13:11:02;3.90;99.90
4293;DHT22;2160;51.172;6.808;2024-01-07T13:13:31;3.80;99.90
4293;DHT22;2160;51.172;6.808;2024-01-07T13:15:58;3.80;99.90
4293;DHT22;2160;51.172;6.808;2024-01-07T13:18:27;3.90;99.90
4293;DHT22;2160;51.172;6.808;2024-01-07T13:20:54;3.90;99.90
4293;DHT22;2160;51.172;6.808;2024-01-07T13:23:21;3.80;99.90
4293;DHT22;2160;51.172;6.808;2024-01-07T13:25:48;3.60;99.90
4293;DHT22;2160;51.172;6.808;2024-01-07T13:28:15;3.70;99.90
4293;DHT22;2160;51.172;6.808;2024-01-07T13:30:43;4.00;99.90
4293;DHT22;2160;51.172;6.808;2024-01-07T13:33:10;3.30;99.90
4293;DHT22;2160;51.172;6.808;2024-01-07T13:35:37;3.60;99.90
4293;DHT22;2160;51.172;6.808;2024-01-07T13:38:04;3.40;99.90
4293;DHT22;2160;51.172;6.808;2024-01-07T13:40:31;3.60;99.90
4293;DHT22;2160;51.172;6.808;2024-01-07T13:42:58;3.60;99.90
4293;DHT22;2160;51.172;6.808;2024-01-07T13:45:25;3.30;99.90
4293;DHT22;2160;51.172;6.808;2024-01-07T13:47:54;3.20;99.90
4293;DHT22;2160;51.172;6.808;2024-01-07T13:50:22;3.10;99.90
4293;DHT22;2160;51.172;6.808;2024-01-07T13:52:49;3.30;99.90
4293;DHT22;2160;51.172;6.808;2024-01-07T13:55:16;3.20;99.90
4293;DHT22;2160;51.172;6.808;2024-01-07T13:57:44;3.20;99.90
4293;DHT22;2160;51.172;6.808;2024-01-07T14:00:11;2.90;99.90
4293;DHT22;2160;51.172;6.808;2024-01-07T14:02:44;2.80;99.90
4293;DHT22;2160;51.172;6.808;2024-01-07T14:05:13;3.00;99.90
4293;DHT22;2160;51.172;6.808;2024-01-07T14:07:40;3.00;99.90
4293;DHT22;2160;51.172;6.808;2024-01-07T14:10:07;3.10;99.90
4293;DHT22;2160;51.172;6.808;2024-01-07T14:12:34;3.10;99.90
4293;DHT22;2160;51.172;6.808;2024-01-07T14:15:02;2.90;99.90
4293;DHT22;2160;51.172;6.808;2024-01-07T14:17:29;2.90;99.90
4293;DHT22;2160;51.172;6.808;2024-01-07T14:19:57;2.90;99.90
4293;DHT22;2160;51.172;6.808;2024-01-07T14:22:25;2.80;99.90
4293;DHT22;2160;51.172;6.808;2024-01-07T14:24:52;2.80;99.90
4293;DHT22;2160;51.172;6.808;2024-01-07T14:27:19;2.60;99.90
4293;DHT22;2160;51.172;6.808;2024-01-07T14:29:46;2.40;99.90
4293;DHT22;2160;51.172;6.808;2024-01-07T14:32:13;2.20;99.90
4293;DHT22;2160;51.172;6.808;2024-01-07T14:34:41;2.30;99.90
4293;DHT22;2160;51.172;6.808;2024-01-07T14:37:09;2.60;99.90
4293;DHT22;2160;51.172;6.808;2024-01-07T14:39:38;2.90;99.90
4293;DHT22;2160;51.172;6.808;2024-01-07T14:42:05;3.00;99.90
4293;DHT22;2160;51.172;6.808;2024-01-07T14:44:33;3.10;99.90
4293;DHT22;2160;51.172;6.808;2024-01-07T14:47:00;3.20;99.90
4293;DHT22;2160;51.172;6.808;2024-01-07T14:49:27;3.20;99.90
4293;DHT22;2160;51.172;6.808;2024-01-07T14:51:54;2.90;99.90
4293;DHT22;2160;51.172;6.808;2024-01-07T14:54:21;2.90;99.90
4293;DHT22;2160;51.172;6.808;2024-01-07T14:56:49;3.10;99.90
4293;DHT22;2160;51.172;6.808;2024-01-07T14:59:16;3.20;99.90
4293;DHT22;2160;51.172;6.808;2024-01-07T15:01:43;3.10;99.90
4293;DHT22;2160;51.172;6.808;2024-01-07T15:04:10;3.30;99.90
4293;DHT22;2160;51.172;6.808;2024-01-07T15:06:41;2.90;99.90
4293;DHT22;2160;51.172;6.808;2024-01-07T15:09:09;3.00;99.90
4293;DHT22;2160;51.172;6.808;2024-01-07T15:11:39;3.00;99.90
4293;DHT22;2160;51.172;6.808;2024-01-07T15:14:08;3.00;99.90
4293;DHT22;2160;51.172;6.808;2024-01-07T15:16:35;3.00;99.90
4293;DHT22;2160;51.172;6.808;2024-01-07T15:19:03;3.30;99.90
4293;DHT22;2160;51.172;6.808;2024-01-07T15:21:30;3.20;99.90
4293;DHT22;2160;51.172;6.808;2024-01-07T15:23:57;3.10;99.90
4293;DHT22;2160;51.172;6.808;2024-01-07T15:26:24;3.10;99.90
4293;DHT22;2160;51.172;6.808;2024-01-07T15:28:51;2.90;99.90
4293;DHT22;2160;51.172;6.808;2024-01-07T15:31:20;2.80;99.90
4293;DHT22;2160;51.172;6.808;2024-01-07T15:33:47;2.90;99.90
4293;DHT22;2160;51.172;6.808;2024-01-07T15:36:14;3.00;99.90
4293;DHT22;2160;51.172;6.808;2024-01-07T15:38:41;3.00;99.90
4293;DHT22;2160;51.172;6.808;2024-01-07T15:41:08;3.20;99.90
4293;DHT22;2160;51.172;6.808;2024-01-07T15:43:35;3.10;99.90
4293;DHT22;2160;51.172;6.808;2024-01-07T15:46:03;3.10;99.90
4293;DHT22;2160;51.172;6.808;2024-01-07T15:48:31;3.20;99.90
4293;DHT22;2160;51.172;6.808;2024-01-07T15:50:58;3.10;99.90
4293;DHT22;2160;51.172;6.808;2024-01-07T15:53:25;3.10;99.90
4293;DHT22;2160;51.172;6.808;2024-01-07T15:56:00;3.20;99.90
4293;DHT22;2160;51.172;6.808;2024-01-07T15:58:28;3.30;99.90
4293;DHT22;2160;51.172;6.808;2024-01-07T16:00:59;3.20;99.90
4293;DHT22;2160;51.172;6.808;2024-01-07T16:03:26;3.10;99.90
4293;DHT22;2160;51.172;6.808;2024-01-07T16:05:54;3.10;99.90
4293;DHT22;2160;51.172;6.808;2024-01-07T16:08:22;3.10;99.90
4293;DHT22;2160;51.172;6.808;2024-01-07T16:10:51;3.10;99.90
4293;DHT22;2160;51.172;6.808;2024-01-07T16:13:18;3.00;99.90
4293;DHT22;2160;51.172;6.808;2024-01-07T16:15:45;3.10;99.90
4293;DHT22;2160;51.172;6.808;2024-01-07T16:18:13;3.10;99.90
4293;DHT22;2160;51.172;6.808;2024-01-07T16:20:40;3.30;99.90
4293;DHT22;2160;51.172;6.808;2024-01-07T16:23:08;3.20;99.90
4293;DHT22;2160;51.172;6.808;2024-01-07T16:25:35;3.10;99.90
4293;DHT22;2160;51.172;6.808;2024-01-07T16:28:03;3.30;99.90
4293;DHT22;2160;51.172;6.808;2024-01-07T16:30:33;3.40;99.90
4293;DHT22;2160;51.172;6.808;2024-01-07T16:33:00;3.50;99.90
4293;DHT22;2160;51.172;6.808;2024-01-07T16:35:29;3.30;99.90
4293;DHT22;2160;51.172;6.808;2024-01-07T16:37:56;3.20;99.90
4293;DHT22;2160;51.172;6.808;2024-01-07T16:40:25;3.40;99.90
4293;DHT22;2160;51.172;6.808;2024-01-07T16:42:52;3.30;99.90
4293;DHT22;2160;51.172;6.808;2024-01-07T16:45:20;3.60;99.90
4293;DHT22;2160;51.172;6.808;2024-01-07T16:47:48;3.40;99.90
4293;DHT22;2160;51.172;6.808;2024-01-07T16:50:16;3.30;99.90
4293;DHT22;2160;51.172;6.808;2024-01-07T16:52:43;3.10;99.90
4293;DHT22;2160;51.172;6.808;2024-01-07T16:55:10;3.20;99.90
4293;DHT22;2160;51.172;6.808;2024-01-07T16:57:38;3.00;99.90
4293;DHT22;2160;51.172;6.808;2024-01-07T17:00:07;3.20;99.90
4293;DHT22;2160;51.172;6.808;2024-01-07T17:02:35;3.40;99.90
4293;DHT22;2160;51.172;6.808;2024-01-07T17:05:03;3.80;99.90
4293;DHT22;2160;51.172;6.808;2024-01-07T17:07:30;3.70;99.90
4293;DHT22;2160;51.172;6.808;2024-01-07T17:09:58;3.20;99.40
4293;DHT22;2160;51.172;6.808;2024-01-07T17:12:25;3.30;99.90
4293;DHT22;2160;51.172;6.808;2024-01-07T17:14:53;3.20;99.50
4293;DHT22;2160;51.172;6.808;2024-01-07T17:17:21;3.20;99.80
4293;DHT22;2160;51.172;6.808;2024-01-07T17:19:50;3.00;99.20
4293;DHT22;2160;51.172;6.808;2024-01-07T17:22:17;2.80;99.00
4293;DHT22;2160;51.172;6.808;2024-01-07T17:24:44;2.80;99.60
4293;DHT22;2160;51.172;6.808;2024-01-07T17:27:11;2.90;99.60
4293;DHT22;2160;51.172;6.808;2024-01-07T17:29:38;3.20;99.60
4293;DHT22;2160;51.172;6.808;2024-01-07T17:32:06;3.50;99.90
4293;DHT22;2160;51.172;6.808;2024-01-07T17:34:36;3.10;98.70
4293;DHT22;2160;51.172;6.808;2024-01-07T17:37:04;3.00;98.70
4293;DHT22;2160;51.172;6.808;2024-01-07T17:39:31;3.10;99.40
4293;DHT22;2160;51.172;6.808;2024-01-07T17:41:59;3.30;99.20
4293;DHT22;2160;51.172;6.808;2024-01-07T17:44:30;3.20;99.50
4293;DHT22;2160;51.172;6.808;2024-01-07T17:46:58;3.20;99.00
4293;DHT22;2160;51.172;6.808;2024-01-07T17:49:26;3.40;99.20
4293;DHT22;2160;51.172;6.808;2024-01-07T17:51:53;3.20;99.30
4293;DHT22;2160;51.172;6.808;2024-01-07T17:54:21;3.20;99.50
4293;DHT22;2160;51.172;6.808;2024-01-07T17:56:48;3.30;98.80
4293;DHT22;2160;51.172;6.808;2024-01-07T17:59:15;3.40;98.90
4293;DHT22;2160;51.172;6.808;2024-01-07T18:01:45;3.50;98.40
4293;DHT22;2160;51.172;6.808;2024-01-07T18:04:12;3.50;98.50
4293;DHT22;2160;51.172;6.808;2024-01-07T18:06:40;3.40;98.30
4293;DHT22;2160;51.172;6.808;2024-01-07T18:09:07;3.20;98.70
4293;DHT22;2160;51.172;6.808;2024-01-07T18:11:36;3.40;99.20
4293;DHT22;2160;51.172;6.808;2024-01-07T18:14:03;3.50;98.70
4293;DHT22;2160;51.172;6.808;2024-01-07T18:16:31;3.50;98.70
4293;DHT22;2160;51.172;6.808;2024-01-07T18:18:58;3.50;99.20
4293;DHT22;2160;51.172;6.808;2024-01-07T18:21:25;3.50;98.90
4293;DHT22;2160;51.172;6.808;2024-01-07T18:23:56;3.80;98.60
4293;DHT22;2160;51.172;6.808;2024-01-07T18:26:25;3.50;98.40
4293;DHT22;2160;51.172;6.808;2024-01-07T18:28:52;3.50;98.90
4293;DHT22;2160;51.172;6.808;2024-01-07T18:31:19;3.40;99.00
4293;DHT22;2160;51.172;6.808;2024-01-07T18:33:47;3.40;99.40
4293;DHT22;2160;51.172;6.808;2024-01-07T18:36:14;3.40;99.90
4293;DHT22;2160;51.172;6.808;2024-01-07T18:38:41;3.50;99.50
4293;DHT22;2160;51.172;6.808;2024-01-07T18:41:16;3.30;99.00
4293;DHT22;2160;51.172;6.808;2024-01-07T18:43:44;3.20;99.40
4293;DHT22;2160;51.172;6.808;2024-01-07T18:46:13;3.30;99.80
4293;DHT22;2160;51.172;6.808;2024-01-07T18:48:40;3.40;99.40
4293;DHT22;2160;51.172;6.808;2024-01-07T18:51:07;3.50;99.30
4293;DHT22;2160;51.172;6.808;2024-01-07T18:53:36;3.40;99.70
4293;DHT22;2160;51.172;6.808;2024-01-07T18:56:04;3.20;99.00
4293;DHT22;2160;51.172;6.808;2024-01-07T18:58:33;3.10;99.20
4293;DHT22;2160;51.172;6.808;2024-01-07T19:01:02;3.20;99.90
4293;DHT22;2160;51.172;6.808;2024-01-07T19:03:29;3.40;99.90
4293;DHT22;2160;51.172;6.808;2024-01-07T19:05:56;3.70;99.90
4293;DHT22;2160;51.172;6.808;2024-01-07T19:08:24;3.90;99.90
4293;DHT22;2160;51.172;6.808;2024-01-07T19:10:51;3.70;99.90
4293;DHT22;2160;51.172;6.808;2024-01-07T19:13:18;3.50;99.90
4293;DHT22;2160;51.172;6.808;2024-01-07T19:15:47;3.50;99.90
4293;DHT22;2160;51.172;6.808;2024-01-07T19:18:14;3.50;99.90
4293;DHT22;2160;51.172;6.808;2024-01-07T19:20:41;3.50;99.90
4293;DHT22;2160;51.172;6.808;2024-01-07T19:23:08;3.60;99.90
4293;DHT22;2160;51.172;6.808;2024-01-07T19:25:35;3.70;99.90
4293;DHT22;2160;51.172;6.808;2024-01-07T19:28:02;3.60;99.90
4293;DHT22;2160;51.172;6.808;2024-01-07T19:30:30;3.30;99.90
4293;DHT22;2160;51.172;6.808;2024-01-07T19:32:59;3.40;99.90
4293;DHT22;2160;51.172;6.808;2024-01-07T19:35:28;3.50;99.90
4293;DHT22;2160;51.172;6.808;2024-01-07T19:37:55;3.50;99.90
4293;DHT22;2160;51.172;6.808;2024-01-07T19:40:24;3.50;99.90
4293;DHT22;2160;51.172;6.808;2024-01-07T19:42:51;3.40;99.90
4293;DHT22;2160;51.172;6.808;2024-01-07T19:45:20;3.30;99.90
4293;DHT22;2160;51.172;6.808;2024-01-07T19:47:48;3.30;99.90
4293;DHT22;2160;51.172;6.808;2024-01-07T19:50:16;3.20;99.90
4293;DHT22;2160;51.172;6.808;2024-01-07T19:52:43;3.10;99.90
4293;DHT22;2160;51.172;6.808;2024-01-07T19:55:14;3.00;99.90
4293;DHT22;2160;51.172;6.808;2024-01-07T19:57:41;2.90;99.90
4293;DHT22;2160;51.172;6.808;2024-01-07T20:00:10;2.80;99.90
4293;DHT22;2160;51.172;6.808;2024-01-07T20:02:38;2.80;99.90
4293;DHT22;2160;51.172;6.808;2024-01-07T20:05:05;2.90;99.90
4293;DHT22;2160;51.172;6.808;2024-01-07T20:07:34;2.70;99.90
4293;DHT22;2160;51.172;6.808;2024-01-07T20:10:01;2.80;99.90
4293;DHT22;2160;51.172;6.808;2024-01-07T20:12:29;2.90;99.90
4293;DHT22;2160;51.172;6.808;2024-01-07T20:14:57;2.80;99.90
4293;DHT22;2160;51.172;6.808;2024-01-07T20:17:25;3.20;99.90
4293;DHT22;2160;51.172;6.808;2024-01-07T20:19:52;2.90;99.90
4293;DHT22;2160;51.172;6.808;2024-01-07T20:22:19;2.50;99.90
4293;DHT22;2160;51.172;6.808;2024-01-07T20:24:48;2.30;99.90
4293;DHT22;2160;51.172;6.808;2024-01-07T20:27:15;2.30;99.90
4293;DHT22;2160;51.172;6.808;2024-01-07T20:29:42;2.20;99.90
4293;DHT22;2160;51.172;6.808;2024-01-07T20:32:10;2.20;99.90
4293;DHT22;2160;51.172;6.808;2024-01-07T20:34:37;2.20;99.90
4293;DHT22;2160;51.172;6.808;2024-01-07T20:37:04;2.40;99.90
4293;DHT22;2160;51.172;6.808;2024-01-07T20:39:31;2.70;99.90
4293;DHT22;2160;51.172;6.808;2024-01-07T20:41:59;2.50;99.90
4293;DHT22;2160;51.172;6.808;2024-01-07T20:44:26;2.30;99.90
4293;DHT22;2160;51.172;6.808;2024-01-07T20:46:53;2.30;99.90
4293;DHT22;2160;51.172;6.808;2024-01-07T20:49:20;2.30;99.90
4293;DHT22;2160;51.172;6.808;2024-01-07T20:51:47;2.30;99.90
4293;DHT22;2160;51.172;6.808;2024-01-07T20:54:14;2.40;99.90
4293;DHT22;2160;51.172;6.808;2024-01-07T20:56:42;2.40;99.90
4293;DHT22;2160;51.172;6.808;2024-01-07T20:59:10;2.20;99.90
4293;DHT22;2160;51.172;6.808;2024-01-07T21:01:38;2.20;99.90
4293;DHT22;2160;51.172;6.808;2024-01-07T21:04:06;2.10;99.90
4293;DHT22;2160;51.172;6.808;2024-01-07T21:06:34;2.10;99.90
4293;DHT22;2160;51.172;6.808;2024-01-07T21:09:03;2.10;99.90
4293;DHT22;2160;51.172;6.808;2024-01-07T21:11:30;2.10;99.90
4293;DHT22;2160;51.172;6.808;2024-01-07T21:13:57;2.20;99.90
4293;DHT22;2160;51.172;6.808;2024-01-07T21:16:25;2.20;99.90
4293;DHT22;2160;51.172;6.808;2024-01-07T21:18:52;2.20;99.90
4293;DHT22;2160;51.172;6.808;2024-01-07T21:21:19;2.10;99.90